createdAt,value
2022-08-17T00:02:26.242Z,14.40
2022-08-17T00:04:54.898Z,14.39
2022-08-17T00:07:21.815Z,14.34
2022-08-17T00:09:48.480Z,14.32
2022-08-17T00:12:41.556Z,14.36
2022-08-17T00:15:02.492Z,14.40
2022-08-17T00:17:29.154Z,14.45
2022-08-17T00:19:55.767Z,14.49
2022-08-17T00:22:31.974Z,14.54
2022-08-17T00:25:02.429Z,14.57
2022-08-17T00:27:29.116Z,14.60
2022-08-17T00:29:55.747Z,14.60
2022-08-17T00:33:14.623Z,14.42
2022-08-17T00:35:11.526Z,14.27
2022-08-17T00:37:38.324Z,14.07
2022-08-17T00:40:06.075Z,14.01
2022-08-17T00:42:33.664Z,13.96
2022-08-17T00:45:00.405Z,13.99
2022-08-17T00:47:27.157Z,13.97
2022-08-17T00:49:54.126Z,13.98
2022-08-17T00:52:26.124Z,13.96
2022-08-17T00:54:55.276Z,13.93
2022-08-17T00:57:28.388Z,13.97
2022-08-17T01:00:02.314Z,14.04
2022-08-17T01:02:41.561Z,14.05
2022-08-17T01:05:14.101Z,14.08
2022-08-17T01:07:42.794Z,14.17
2022-08-17T01:10:58.269Z,13.97
2022-08-17T01:12:59.960Z,13.86
2022-08-17T01:15:26.619Z,13.85
2022-08-17T01:17:53.234Z,13.86
2022-08-17T01:20:19.926Z,13.90
2022-08-17T01:22:46.628Z,13.94
2022-08-17T01:25:14.526Z,14.03
2022-08-17T01:27:42.677Z,14.15
2022-08-17T01:30:58.988Z,14.27
2022-08-17T01:32:59.019Z,14.38
2022-08-17T01:35:25.856Z,14.14
2022-08-17T01:37:52.626Z,13.92
2022-08-17T01:40:43.674Z,13.62
2022-08-17T01:43:25.044Z,13.55
2022-08-17T01:46:03.522Z,13.60
2022-08-17T01:48:36.460Z,13.71
2022-08-17T01:51:06.266Z,13.69
2022-08-17T01:53:40.570Z,13.73
2022-08-17T01:56:11.077Z,13.81
2022-08-17T01:58:39.485Z,13.91
2022-08-17T02:01:08.411Z,13.98
2022-08-17T02:03:37.756Z,13.95
2022-08-17T02:06:06.530Z,13.87
2022-08-17T02:09:02.689Z,13.69
2022-08-17T02:11:33.856Z,13.69
2022-08-17T02:14:02.880Z,13.73
2022-08-17T02:16:37.898Z,13.74
2022-08-17T02:19:10.996Z,13.60
2022-08-17T02:21:39.440Z,13.60
2022-08-17T02:24:10.865Z,13.59
2022-08-17T02:26:37.401Z,13.61
2022-08-17T02:29:04.336Z,13.57
2022-08-17T02:31:31.136Z,13.51
2022-08-17T02:34:03.993Z,13.38
2022-08-17T02:36:33.805Z,13.35
2022-08-17T02:39:05.458Z,13.30
2022-08-17T02:41:32.152Z,13.35
2022-08-17T02:43:59.063Z,13.27
2022-08-17T02:46:26.059Z,13.32
2022-08-17T02:48:52.680Z,13.35
2022-08-17T02:51:19.345Z,13.31
2022-08-17T02:53:46.784Z,13.29
2022-08-17T02:56:13.734Z,13.35
2022-08-17T02:58:40.364Z,13.43
2022-08-17T03:01:09.257Z,13.46
2022-08-17T03:03:37.259Z,13.48
2022-08-17T03:06:04.722Z,13.49
2022-08-17T03:08:31.656Z,13.52
2022-08-17T03:10:58.351Z,13.48
2022-08-17T03:13:25.690Z,13.43
2022-08-17T03:15:52.305Z,13.38
2022-08-17T03:18:25.696Z,13.30
2022-08-17T03:20:58.685Z,13.18
2022-08-17T03:23:27.510Z,13.22
2022-08-17T03:25:56.420Z,13.21
2022-08-17T03:28:23.888Z,13.22
2022-08-17T03:30:51.654Z,13.17
2022-08-17T03:33:20.638Z,13.13
2022-08-17T03:35:47.472Z,13.17
2022-08-17T03:38:17.068Z,13.27
2022-08-17T03:40:58.203Z,13.37
2022-08-17T03:43:29.499Z,13.46
2022-08-17T03:46:28.401Z,13.48
2022-08-17T03:49:19.227Z,13.52
2022-08-17T03:52:04.451Z,13.54
2022-08-17T03:54:49.806Z,13.33
2022-08-17T03:57:16.649Z,13.28
2022-08-17T03:59:43.317Z,13.04
2022-08-17T04:02:17.462Z,12.98
2022-08-17T04:04:44.477Z,12.93
2022-08-17T04:07:11.545Z,12.98
2022-08-17T04:09:38.183Z,12.88
2022-08-17T04:12:05.625Z,12.78
2022-08-17T04:14:39.313Z,12.79
2022-08-17T04:17:20.375Z,12.89
2022-08-17T04:19:47.026Z,12.92
2022-08-17T04:22:31.994Z,12.97
2022-08-17T04:25:16.260Z,13.02
2022-08-17T04:27:42.930Z,13.02
2022-08-17T04:30:10.252Z,13.09
2022-08-17T04:33:03.712Z,12.97
2022-08-17T04:35:40.148Z,12.77
2022-08-17T04:38:08.775Z,12.76
2022-08-17T04:40:54.491Z,12.87
2022-08-17T04:43:23.812Z,12.97
2022-08-17T04:45:56.037Z,13.11
2022-08-17T04:48:29.980Z,13.34
2022-08-17T04:51:13.478Z,13.54
2022-08-17T04:53:44.084Z,13.67
2022-08-17T04:56:16.594Z,13.81
2022-08-17T04:58:47.860Z,13.92
2022-08-17T05:01:16.270Z,14.03
2022-08-17T05:03:50.259Z,14.14
2022-08-17T05:06:16.982Z,14.19
2022-08-17T05:08:43.655Z,14.26
2022-08-17T05:11:10.399Z,14.37
2022-08-17T05:13:37.055Z,14.59
2022-08-17T05:16:04.734Z,14.71
2022-08-17T05:18:31.920Z,14.86
2022-08-17T05:20:58.778Z,15.02
2022-08-17T05:23:27.711Z,15.16
2022-08-17T05:26:10.303Z,15.30
2022-08-17T05:28:42.932Z,15.45
2022-08-17T05:31:12.721Z,15.56
2022-08-17T05:33:45.185Z,15.66
2022-08-17T05:36:42.079Z,15.90
2022-08-17T05:39:01.626Z,16.09
2022-08-17T05:41:28.297Z,16.25
2022-08-17T05:43:56.518Z,16.46
2022-08-17T05:46:31.340Z,16.63
2022-08-17T05:49:03.167Z,16.81
2022-08-17T05:51:55.409Z,16.99
2022-08-17T05:54:21.978Z,17.15
2022-08-17T05:57:06.685Z,17.28
2022-08-17T05:59:52.758Z,17.40
2022-08-17T06:02:22.335Z,17.51
2022-08-17T06:04:54.639Z,17.70
2022-08-17T06:07:28.883Z,17.88
2022-08-17T06:10:20.184Z,18.11
2022-08-17T06:13:12.426Z,18.29
2022-08-17T06:16:01.913Z,18.40
2022-08-17T06:18:36.424Z,18.67
2022-08-17T06:21:07.167Z,18.65
2022-08-17T06:23:38.051Z,18.83
2022-08-17T06:26:27.479Z,18.92
2022-08-17T06:29:04.997Z,19.12
2022-08-17T06:31:38.492Z,19.19
2022-08-17T06:34:09.508Z,19.36
2022-08-17T06:36:42.376Z,19.55
2022-08-17T06:39:27.241Z,19.90
2022-08-17T06:43:02.863Z,19.94
2022-08-17T06:45:27.118Z,19.94
2022-08-17T06:48:11.678Z,20.05
2022-08-17T06:50:44.971Z,20.29
2022-08-17T06:53:35.819Z,20.56
2022-08-17T06:56:08.848Z,20.42
2022-08-17T06:58:37.317Z,20.60
2022-08-17T07:01:12.403Z,20.72
2022-08-17T07:03:42.539Z,20.84
2022-08-17T07:06:18.353Z,21.52
2022-08-17T07:09:07.482Z,21.68
2022-08-17T07:11:34.043Z,21.78
2022-08-17T07:14:17.282Z,21.73
2022-08-17T07:16:48.878Z,21.87
2022-08-17T07:19:18.041Z,22.14
2022-08-17T07:22:10.630Z,22.49
2022-08-17T07:24:59.617Z,22.49
2022-08-17T07:27:32.799Z,22.89
2022-08-17T07:30:10.335Z,22.80
2022-08-17T07:32:47.552Z,22.92
2022-08-17T07:35:15.267Z,23.08
2022-08-17T07:37:53.016Z,23.37
2022-08-17T07:40:22.832Z,23.53
2022-08-17T07:43:21.935Z,23.56
2022-08-17T07:46:09.866Z,23.80
2022-08-17T07:48:39.004Z,23.88
2022-08-17T07:51:19.235Z,23.83
2022-08-17T07:53:46.217Z,24.07
2022-08-17T07:56:37.760Z,24.17
2022-08-17T07:59:16.380Z,24.44
2022-08-17T08:01:58.809Z,24.42
2022-08-17T08:07:20.516Z,24.27
2022-08-17T08:10:07.975Z,24.45
2022-08-17T08:12:46.593Z,24.59
2022-08-17T08:15:23.233Z,24.91
2022-08-17T08:17:52.970Z,25.22
2022-08-17T08:20:53.373Z,25.18
2022-08-17T08:23:39.533Z,25.30
2022-08-17T08:26:26.517Z,25.47
2022-08-17T08:29:11.677Z,25.40
2022-08-17T08:32:05.157Z,25.40
2022-08-17T08:35:03.585Z,25.50
2022-08-17T08:37:52.560Z,25.61
2022-08-17T08:40:38.748Z,25.77
2022-08-17T08:43:27.457Z,25.79
2022-08-17T08:46:23.377Z,26.02
2022-08-17T08:49:12.019Z,26.10
2022-08-17T08:51:56.248Z,26.29
2022-08-17T08:54:31.603Z,26.29
2022-08-17T08:57:24.156Z,26.47
2022-08-17T09:00:15.316Z,26.56
2022-08-17T09:03:02.832Z,27.14
2022-08-17T09:05:56.239Z,27.18
2022-08-17T09:08:27.211Z,27.33
2022-08-17T09:10:56.830Z,27.54
2022-08-17T09:13:54.142Z,27.95
2022-08-17T09:16:29.791Z,27.86
2022-08-17T09:19:11.620Z,28.18
2022-08-17T09:21:58.719Z,28.35
2022-08-17T09:24:47.806Z,28.57
2022-08-17T09:27:18.450Z,28.56
2022-08-17T09:29:51.802Z,28.82
2022-08-17T09:32:42.786Z,28.72
2022-08-17T09:35:17.626Z,28.84
2022-08-17T09:38:09.869Z,28.32
2022-08-17T09:40:45.387Z,28.45
2022-08-17T09:43:24.738Z,28.44
2022-08-17T09:45:57.274Z,28.59
2022-08-17T09:48:32.941Z,28.84
2022-08-17T09:51:29.529Z,28.89
2022-08-17T09:54:09.470Z,29.05
2022-08-17T09:57:27.924Z,29.47
2022-08-17T09:59:57.655Z,29.41
2022-08-17T10:02:58.302Z,29.52
2022-08-17T10:05:37.717Z,29.55
2022-08-17T10:08:27.703Z,29.55
2022-08-17T10:11:46.420Z,29.52
2022-08-17T10:14:37.502Z,29.52
2022-08-17T10:17:43.163Z,29.05
2022-08-17T10:20:16.943Z,29.39
2022-08-17T10:23:04.640Z,29.49
2022-08-17T10:25:55.676Z,29.64
2022-08-17T10:28:29.847Z,29.72
2022-08-17T10:31:33.081Z,29.94
2022-08-17T10:34:41.533Z,30.16
2022-08-17T10:37:14.434Z,30.43
2022-08-17T10:40:16.366Z,30.65
2022-08-17T10:43:00.116Z,30.41
2022-08-17T10:45:46.958Z,30.73
2022-08-17T10:48:13.999Z,30.94
2022-08-17T10:50:56.128Z,31.00
2022-08-17T10:53:31.651Z,31.54
2022-08-17T10:56:21.746Z,31.39
2022-08-17T10:59:01.780Z,30.67
2022-08-17T11:01:34.468Z,30.28
2022-08-17T11:04:23.639Z,30.54
2022-08-17T11:07:21.185Z,30.29
2022-08-17T11:10:54.777Z,30.64
2022-08-17T11:13:58.946Z,31.14
2022-08-17T11:16:53.252Z,31.40
2022-08-17T11:19:31.681Z,31.86
2022-08-17T11:22:10.079Z,31.88
2022-08-17T11:24:49.105Z,32.20
2022-08-17T11:27:27.921Z,31.74
2022-08-17T11:30:07.817Z,31.70
2022-08-17T11:32:47.678Z,32.84
2022-08-17T11:35:22.490Z,32.72
2022-08-17T11:38:13.559Z,33.41
2022-08-17T11:40:48.773Z,33.34
2022-08-17T11:43:52.712Z,33.83
2022-08-17T11:47:07.268Z,32.96
2022-08-17T11:49:58.634Z,32.84
2022-08-17T11:52:47.042Z,32.85
2022-08-17T11:55:36.390Z,33.97
2022-08-17T11:58:23.721Z,33.78
2022-08-17T12:01:03.575Z,33.48
2022-08-17T12:03:33.294Z,33.24
2022-08-17T12:06:30.855Z,32.37
2022-08-17T12:09:15.994Z,31.98
2022-08-17T12:12:13.431Z,31.49
2022-08-17T12:17:42.689Z,31.20
2022-08-17T12:20:35.234Z,31.11
2022-08-17T12:23:34.180Z,30.89
2022-08-17T12:26:11.776Z,31.72
2022-08-17T12:28:44.225Z,32.65
2022-08-17T12:31:30.885Z,33.04
2022-08-17T12:33:57.834Z,33.71
2022-08-17T12:36:26.286Z,34.78
2022-08-17T12:39:00.079Z,35.43
2022-08-17T12:41:47.042Z,35.30
2022-08-17T12:44:23.366Z,34.54
2022-08-17T12:47:09.662Z,34.77
2022-08-17T12:49:39.382Z,34.45
2022-08-17T12:52:17.136Z,33.85
2022-08-17T12:54:52.504Z,33.75
2022-08-17T12:57:24.219Z,34.42
2022-08-17T12:59:55.472Z,35.56
2022-08-17T13:02:28.805Z,34.69
2022-08-17T13:04:58.626Z,34.00
2022-08-17T13:07:42.365Z,33.65
2022-08-17T13:10:31.597Z,32.91
2022-08-17T13:13:04.851Z,32.78
2022-08-17T13:15:36.850Z,32.39
2022-08-17T13:18:42.394Z,32.58
2022-08-17T13:21:26.631Z,32.67
2022-08-17T13:23:56.197Z,33.24
2022-08-17T13:26:35.444Z,34.31
2022-08-17T13:29:06.378Z,34.79
2022-08-17T13:31:52.297Z,34.89
2022-08-17T13:34:26.851Z,35.10
2022-08-17T13:37:33.587Z,35.29
2022-08-17T13:40:09.060Z,35.53
2022-08-17T13:42:51.763Z,36.00
2022-08-17T13:45:35.223Z,36.03
2022-08-17T13:48:11.862Z,36.64
2022-08-17T13:50:59.550Z,36.30
2022-08-17T13:53:36.247Z,36.20
2022-08-17T13:56:03.802Z,36.56
2022-08-17T13:58:37.275Z,37.50
2022-08-17T14:01:32.162Z,38.15
2022-08-17T14:04:00.897Z,38.72
2022-08-17T14:06:52.265Z,37.71
2022-08-17T14:09:27.563Z,38.01
2022-08-17T14:11:56.748Z,38.06
2022-08-17T14:14:24.488Z,37.98
2022-08-17T14:16:54.747Z,38.22
2022-08-17T14:19:24.698Z,38.46
2022-08-17T14:21:52.269Z,39.01
2022-08-17T14:24:32.419Z,38.74
2022-08-17T14:27:00.391Z,39.56
2022-08-17T14:29:29.622Z,39.93
2022-08-17T14:31:57.772Z,40.26
2022-08-17T14:34:25.274Z,40.22
2022-08-17T14:36:52.766Z,39.39
2022-08-17T14:39:19.744Z,37.92
2022-08-17T14:41:46.618Z,37.10
2022-08-17T14:44:13.582Z,36.27
2022-08-17T14:46:42.019Z,35.94
2022-08-17T14:49:12.352Z,35.38
2022-08-17T14:51:44.075Z,35.90
2022-08-17T14:54:34.222Z,37.12
2022-08-17T14:57:22.248Z,37.05
2022-08-17T14:59:48.834Z,36.07
2022-08-17T15:02:19.179Z,36.56
2022-08-17T15:04:48.652Z,37.29
2022-08-17T15:07:15.731Z,37.96
2022-08-17T15:09:42.835Z,38.12
2022-08-17T15:12:17.921Z,38.48
2022-08-17T15:14:44.518Z,37.72
2022-08-17T15:17:11.552Z,36.66
2022-08-17T15:19:38.185Z,36.20
2022-08-17T15:22:04.894Z,35.77
2022-08-17T15:24:31.536Z,35.62
2022-08-17T15:26:58.144Z,35.88
2022-08-17T15:29:24.756Z,35.57
2022-08-17T15:31:51.362Z,35.50
2022-08-17T15:34:17.985Z,35.42
2022-08-17T15:36:49.089Z,34.74
2022-08-17T15:39:19.229Z,34.23
2022-08-17T15:41:47.292Z,34.34
2022-08-17T15:44:32.597Z,33.50
2022-08-17T15:47:02.089Z,32.70
2022-08-17T15:49:28.866Z,32.23
2022-08-17T15:51:55.642Z,31.61
2022-08-17T15:54:23.103Z,31.58
2022-08-17T15:56:50.291Z,31.48
2022-08-17T15:59:16.902Z,31.05
2022-08-17T16:03:14.300Z,30.90
2022-08-17T16:04:31.743Z,30.84
2022-08-17T16:06:59.813Z,30.75
2022-08-17T16:09:27.051Z,30.64
2022-08-17T16:11:55.674Z,30.62
2022-08-17T16:14:28.877Z,30.51
2022-08-17T16:17:00.797Z,30.24
2022-08-17T16:19:27.408Z,30.24
2022-08-17T16:21:54.057Z,29.96
2022-08-17T16:24:21.315Z,30.01
2022-08-17T16:26:48.051Z,29.89
2022-08-17T16:29:14.739Z,29.79
2022-08-17T16:31:42.469Z,29.73
2022-08-17T16:34:17.006Z,29.77
2022-08-17T16:36:55.110Z,29.54
2022-08-17T16:39:23.689Z,29.23
2022-08-17T16:41:50.415Z,29.23
2022-08-17T16:44:19.965Z,29.09
2022-08-17T16:46:47.818Z,28.76
2022-08-17T16:49:36.062Z,28.66
2022-08-17T16:52:04.286Z,28.63
2022-08-17T16:54:30.880Z,28.68
2022-08-17T16:56:57.495Z,28.62
2022-08-17T16:59:31.362Z,28.49
2022-08-17T17:02:11.183Z,28.50
2022-08-17T17:04:45.825Z,28.56
2022-08-17T17:07:49.651Z,28.41
2022-08-17T17:10:38.748Z,28.44
2022-08-17T17:13:11.179Z,28.37
2022-08-17T17:15:55.433Z,28.20
2022-08-17T17:18:31.624Z,28.12
2022-08-17T17:20:59.289Z,28.09
2022-08-17T17:23:39.707Z,28.09
2022-08-17T17:26:24.614Z,27.67
2022-08-17T17:29:22.176Z,27.47
2022-08-17T17:32:20.756Z,27.08
2022-08-17T17:34:56.214Z,26.86
2022-08-17T17:37:32.310Z,26.53
2022-08-17T17:40:05.168Z,26.26
2022-08-17T17:42:33.124Z,26.18
2022-08-17T17:45:02.646Z,26.08
2022-08-17T17:47:31.076Z,25.78
2022-08-17T17:50:01.195Z,25.82
2022-08-17T17:53:05.029Z,25.64
2022-08-17T17:55:42.400Z,25.34
2022-08-17T17:58:33.308Z,25.17
2022-08-17T18:01:12.163Z,24.84
2022-08-17T18:03:56.467Z,24.61
2022-08-17T18:06:36.212Z,24.38
2022-08-17T18:09:09.008Z,24.12
2022-08-17T18:11:58.919Z,24.00
2022-08-17T18:14:37.515Z,23.92
2022-08-17T18:17:05.654Z,23.92
2022-08-17T18:19:32.861Z,23.89
2022-08-17T18:22:21.500Z,23.74
2022-08-17T18:24:56.081Z,23.38
2022-08-17T18:27:32.392Z,23.06
2022-08-17T18:30:19.371Z,22.86
2022-08-17T18:32:46.674Z,22.94
2022-08-17T18:35:16.197Z,22.91
2022-08-17T18:37:45.549Z,22.91
2022-08-17T18:40:18.420Z,22.95
2022-08-17T18:43:00.207Z,22.93
2022-08-17T18:45:45.188Z,22.88
2022-08-17T18:48:36.550Z,22.80
2022-08-17T18:51:41.439Z,22.84
2022-08-17T18:54:22.095Z,22.82
2022-08-17T18:56:54.681Z,22.83
2022-08-17T18:59:39.674Z,22.73
2022-08-17T19:02:21.612Z,22.62
2022-08-17T19:05:13.235Z,22.56
2022-08-17T19:07:45.725Z,22.36
2022-08-17T19:10:18.185Z,22.31
2022-08-17T19:13:01.150Z,22.24
2022-08-17T19:15:34.367Z,22.24
2022-08-17T19:18:15.560Z,22.25
2022-08-17T19:21:03.806Z,22.29
2022-08-17T19:23:54.233Z,22.22
2022-08-17T19:26:54.010Z,22.15
2022-08-17T19:29:22.567Z,22.03
2022-08-17T19:31:49.943Z,22.06
2022-08-17T19:34:33.550Z,22.11
2022-08-17T19:37:12.183Z,22.24
2022-08-17T19:39:57.884Z,22.29
2022-08-17T19:42:52.413Z,22.20
2022-08-17T19:45:28.046Z,22.12
2022-08-17T19:48:29.447Z,22.21
2022-08-17T19:51:03.031Z,22.01
2022-08-17T19:54:04.430Z,21.84
2022-08-17T19:56:40.876Z,21.68
2022-08-17T19:59:10.444Z,21.66
2022-08-17T20:01:50.213Z,21.80
2022-08-17T20:04:25.967Z,21.90
2022-08-17T20:07:15.306Z,21.82
2022-08-17T20:10:00.958Z,21.72
2022-08-17T20:12:33.501Z,21.73
2022-08-17T20:15:37.776Z,21.81
2022-08-17T20:18:12.339Z,21.85
2022-08-17T20:21:08.332Z,21.90
2022-08-17T20:23:53.172Z,22.03
2022-08-17T20:26:22.798Z,22.16
2022-08-17T20:29:07.544Z,22.10
2022-08-17T20:31:42.964Z,22.10
2022-08-17T20:34:33.756Z,22.11
2022-08-17T20:37:14.729Z,21.96
2022-08-17T20:40:09.090Z,21.84
2022-08-17T20:42:36.854Z,21.82
2022-08-17T20:45:21.724Z,21.89
2022-08-17T20:48:18.626Z,21.87
2022-08-17T20:50:44.061Z,21.75
2022-08-17T20:53:13.523Z,21.58
2022-08-17T20:55:51.544Z,21.64
2022-08-17T20:58:24.809Z,21.69
2022-08-17T21:00:57.445Z,21.72
2022-08-17T21:03:24.137Z,21.73
2022-08-17T21:05:57.252Z,21.76
2022-08-17T21:08:46.281Z,21.56
2022-08-17T21:12:02.536Z,21.54
2022-08-17T21:14:17.876Z,21.42
2022-08-17T21:17:14.935Z,21.38
2022-08-17T21:20:21.992Z,21.47
2022-08-17T21:23:25.696Z,21.65
2022-08-17T21:26:07.189Z,21.85
2022-08-17T21:29:17.883Z,22.19
2022-08-17T21:32:03.294Z,22.07
2022-08-17T21:34:35.753Z,22.16
2022-08-17T21:37:23.368Z,22.11
2022-08-17T21:39:58.010Z,22.06
2022-08-17T21:42:34.481Z,22.06
2022-08-17T21:45:28.604Z,22.07
2022-08-17T21:48:20.089Z,22.01
2022-08-17T21:50:57.961Z,22.00
2022-08-17T21:53:32.909Z,21.37
2022-08-17T21:56:00.791Z,20.78
2022-08-17T21:58:36.521Z,20.39
2022-08-17T22:01:25.385Z,20.14
2022-08-17T22:04:06.582Z,19.77
2022-08-17T22:06:35.611Z,19.30
2022-08-17T22:09:23.865Z,19.03
2022-08-17T22:12:02.972Z,19.06
2022-08-17T22:14:52.373Z,19.01
2022-08-17T22:17:36.906Z,19.01
2022-08-17T22:20:33.317Z,18.85
2022-08-17T22:23:18.302Z,18.86
2022-08-17T22:26:13.388Z,18.76
2022-08-17T22:28:45.657Z,18.71
2022-08-17T22:31:18.800Z,18.57
2022-08-17T22:33:49.319Z,18.43
2022-08-17T22:36:29.047Z,18.45
2022-08-17T22:39:00.191Z,18.43
2022-08-17T22:41:54.273Z,18.49
2022-08-17T22:44:35.568Z,18.57
2022-08-17T22:47:24.044Z,18.56
2022-08-17T22:50:02.449Z,18.58
2022-08-17T22:53:32.661Z,18.47
2022-08-17T22:56:17.966Z,18.34
2022-08-17T22:59:18.054Z,18.40
2022-08-17T23:02:05.642Z,18.48
2022-08-17T23:04:39.224Z,18.55
2022-08-17T23:07:08.604Z,18.48
2022-08-17T23:09:35.972Z,18.36
2022-08-17T23:12:11.622Z,18.39
2022-08-17T23:14:45.717Z,18.31
2022-08-17T23:17:13.431Z,18.20
2022-08-17T23:19:40.408Z,18.12
2022-08-17T23:22:10.111Z,18.18
2022-08-17T23:24:48.478Z,18.14
2022-08-17T23:27:15.175Z,18.09
2022-08-17T23:29:42.005Z,18.19
2022-08-17T23:32:14.617Z,18.14
2022-08-17T23:34:44.181Z,18.01
2022-08-17T23:37:11.905Z,18.02
2022-08-17T23:39:39.605Z,18.01
2022-08-17T23:42:09.194Z,17.99
2022-08-17T23:44:37.914Z,17.86
2022-08-17T23:47:05.656Z,17.84
2022-08-17T23:49:32.342Z,17.79
2022-08-17T23:52:01.746Z,17.80
2022-08-17T23:54:34.060Z,17.80
2022-08-17T23:57:01.879Z,17.77
2022-08-17T23:59:29.190Z,17.68
